createdAt,value
2023-03-26T00:01:17.069Z,100.00
2023-03-26T00:03:47.166Z,100.00
2023-03-26T00:06:17.208Z,100.00
2023-03-26T00:08:45.784Z,100.00
2023-03-26T00:11:14.833Z,100.00
2023-03-26T00:13:43.712Z,100.00
2023-03-26T00:16:13.745Z,100.00
2023-03-26T00:18:42.479Z,100.00
2023-03-26T00:21:13.093Z,100.00
2023-03-26T00:23:40.013Z,100.00
2023-03-26T00:26:10.683Z,100.00
2023-03-26T00:28:40.434Z,100.00
2023-03-26T00:31:10.553Z,100.00
2023-03-26T00:33:38.254Z,100.00
2023-03-26T00:36:09.889Z,100.00
2023-03-26T00:38:39.101Z,100.00
2023-03-26T00:41:17.539Z,100.00
2023-03-26T00:43:46.711Z,100.00
2023-03-26T00:46:13.274Z,100.00
2023-03-26T00:48:45.465Z,100.00
2023-03-26T00:51:15.406Z,100.00
2023-03-26T00:53:46.341Z,100.00
2023-03-26T00:56:13.596Z,100.00
2023-03-26T00:58:40.602Z,100.00
2023-03-26T01:01:18.889Z,100.00
2023-03-26T01:03:57.101Z,100.00
2023-03-26T01:06:35.683Z,100.00
2023-03-26T01:09:11.099Z,100.00
2023-03-26T01:11:37.719Z,100.00
2023-03-26T01:14:14.566Z,100.00
2023-03-26T01:16:45.160Z,100.00
2023-03-26T01:19:22.790Z,100.00
2023-03-26T01:21:49.299Z,100.00
2023-03-26T01:24:16.227Z,100.00
2023-03-26T01:27:04.424Z,100.00
2023-03-26T01:29:41.759Z,100.00
2023-03-26T01:32:24.405Z,100.00
2023-03-26T01:34:59.020Z,100.00
2023-03-26T01:37:30.492Z,100.00
2023-03-26T01:40:07.171Z,100.00
2023-03-26T01:42:59.434Z,100.00
2023-03-26T01:45:30.860Z,100.00
2023-03-26T01:47:58.409Z,100.00
2023-03-26T01:50:25.499Z,100.00
2023-03-26T01:52:52.032Z,100.00
2023-03-26T01:55:18.947Z,100.00
2023-03-26T01:58:00.442Z,100.00
2023-03-26T02:00:33.658Z,100.00
2023-03-26T02:03:31.511Z,100.00
2023-03-26T02:06:20.211Z,100.00
2023-03-26T02:09:07.036Z,100.00
2023-03-26T02:11:37.182Z,100.00
2023-03-26T02:14:05.973Z,100.00
2023-03-26T02:16:32.956Z,100.00
2023-03-26T02:19:00.234Z,100.00
2023-03-26T02:21:27.928Z,100.00
2023-03-26T02:24:03.358Z,100.00
2023-03-26T02:26:34.360Z,100.00
2023-03-26T02:29:07.585Z,100.00
2023-03-26T02:31:36.753Z,100.00
2023-03-26T02:34:03.321Z,100.00
2023-03-26T02:36:33.008Z,100.00
2023-03-26T02:39:02.443Z,100.00
2023-03-26T02:41:32.976Z,100.00
2023-03-26T02:44:03.948Z,100.00
2023-03-26T02:46:50.439Z,100.00
2023-03-26T02:49:35.809Z,100.00
2023-03-26T02:52:06.305Z,100.00
2023-03-26T02:54:34.479Z,100.00
2023-03-26T02:57:21.429Z,100.00
2023-03-26T03:00:12.693Z,100.00
2023-03-26T03:02:39.820Z,100.00
2023-03-26T03:05:26.673Z,100.00
2023-03-26T03:08:11.448Z,100.00
2023-03-26T03:10:44.630Z,100.00
2023-03-26T03:13:19.709Z,100.00
2023-03-26T03:15:47.116Z,100.00
2023-03-26T03:18:13.656Z,100.00
2023-03-26T03:20:40.313Z,100.00
2023-03-26T03:23:06.973Z,100.00
2023-03-26T03:25:33.771Z,100.00
2023-03-26T03:28:00.657Z,100.00
2023-03-26T03:30:27.201Z,100.00
2023-03-26T03:32:53.765Z,100.00
2023-03-26T03:35:23.134Z,100.00
2023-03-26T03:37:54.095Z,100.00
2023-03-26T03:40:20.654Z,100.00
2023-03-26T03:42:47.495Z,100.00
2023-03-26T03:45:20.345Z,100.00
2023-03-26T03:48:06.476Z,100.00
2023-03-26T03:50:39.249Z,100.00
2023-03-26T03:53:26.475Z,100.00
2023-03-26T03:55:58.539Z,100.00
2023-03-26T03:58:47.995Z,100.00
2023-03-26T04:01:22.651Z,100.00
2023-03-26T04:03:58.810Z,100.00
2023-03-26T04:06:37.074Z,100.00
2023-03-26T04:09:03.964Z,100.00
2023-03-26T04:11:30.785Z,100.00
2023-03-26T04:14:12.154Z,100.00
2023-03-26T04:16:59.807Z,100.00
2023-03-26T04:19:28.894Z,100.00
2023-03-26T04:21:55.454Z,100.00
2023-03-26T04:24:22.425Z,100.00
2023-03-26T04:27:16.508Z,100.00
2023-03-26T04:29:48.172Z,100.00
2023-03-26T04:32:19.411Z,100.00
2023-03-26T04:34:47.937Z,100.00
2023-03-26T04:37:26.522Z,100.00
2023-03-26T04:40:11.417Z,100.00
2023-03-26T04:42:47.333Z,100.00
2023-03-26T04:45:26.156Z,100.00
2023-03-26T04:47:59.760Z,100.00
2023-03-26T04:50:26.878Z,100.00
2023-03-26T04:52:56.663Z,100.00
2023-03-26T04:55:59.104Z,100.00
2023-03-26T04:58:46.037Z,100.00
2023-03-26T05:01:12.566Z,100.00
2023-03-26T05:03:45.606Z,100.00
2023-03-26T05:06:14.096Z,100.00
2023-03-26T05:08:41.789Z,100.00
2023-03-26T05:11:12.247Z,100.00
2023-03-26T05:13:39.536Z,100.00
2023-03-26T05:16:11.409Z,100.00
2023-03-26T05:18:47.671Z,100.00
2023-03-26T05:21:14.283Z,100.00
2023-03-26T05:23:41.039Z,100.00
2023-03-26T05:26:16.969Z,100.00
2023-03-26T05:28:43.525Z,100.00
2023-03-26T05:31:33.431Z,100.00
2023-03-26T05:34:01.434Z,100.00
2023-03-26T05:36:28.404Z,100.00
2023-03-26T05:39:06.107Z,100.00
2023-03-26T05:41:55.868Z,100.00
2023-03-26T05:44:28.225Z,100.00
2023-03-26T05:46:55.319Z,100.00
2023-03-26T05:49:25.726Z,100.00
2023-03-26T05:51:55.445Z,100.00
2023-03-26T05:54:34.671Z,100.00
2023-03-26T05:57:22.196Z,100.00
2023-03-26T06:00:24.192Z,100.00
2023-03-26T06:02:56.485Z,100.00
2023-03-26T06:05:57.966Z,100.00
2023-03-26T06:08:39.619Z,100.00
2023-03-26T06:11:10.264Z,100.00
2023-03-26T06:13:39.895Z,100.00
2023-03-26T06:16:07.089Z,100.00
2023-03-26T06:18:37.059Z,100.00
2023-03-26T06:21:12.380Z,100.00
2023-03-26T06:23:44.538Z,100.00
2023-03-26T06:26:30.642Z,100.00
2023-03-26T06:29:17.066Z,100.00
2023-03-26T06:32:16.384Z,100.00
2023-03-26T06:34:49.897Z,100.00
2023-03-26T06:37:18.116Z,100.00
2023-03-26T06:39:46.278Z,100.00
2023-03-26T06:42:18.764Z,100.00
2023-03-26T06:44:45.386Z,100.00
2023-03-26T06:47:30.822Z,100.00
2023-03-26T06:50:15.942Z,100.00
2023-03-26T06:53:11.895Z,100.00
2023-03-26T06:55:54.593Z,100.00
2023-03-26T06:58:23.859Z,100.00
2023-03-26T07:01:09.053Z,100.00
2023-03-26T07:03:54.462Z,100.00
2023-03-26T07:06:39.665Z,100.00
2023-03-26T07:09:26.261Z,100.00
2023-03-26T07:12:27.940Z,100.00
2023-03-26T07:15:12.906Z,100.00
2023-03-26T07:18:14.979Z,100.00
2023-03-26T07:20:45.142Z,100.00
2023-03-26T07:23:13.744Z,100.00
2023-03-26T07:25:56.729Z,100.00
2023-03-26T07:28:40.076Z,100.00
2023-03-26T07:31:27.088Z,100.00
2023-03-26T07:34:40.587Z,100.00
2023-03-26T07:37:50.203Z,100.00
2023-03-26T07:40:49.100Z,100.00
2023-03-26T07:44:18.333Z,100.00
2023-03-26T07:47:32.758Z,100.00
2023-03-26T07:50:23.496Z,100.00
2023-03-26T07:53:01.872Z,100.00
2023-03-26T07:55:41.708Z,100.00
2023-03-26T07:59:13.061Z,100.00
2023-03-26T08:02:33.527Z,100.00
2023-03-26T08:05:30.291Z,100.00
2023-03-26T08:08:25.722Z,100.00
2023-03-26T08:11:30.074Z,100.00
2023-03-26T08:14:03.113Z,100.00
2023-03-26T08:17:00.674Z,100.00
2023-03-26T08:19:50.830Z,100.00
2023-03-26T08:22:26.251Z,100.00
2023-03-26T08:25:12.242Z,100.00
2023-03-26T08:27:51.742Z,100.00
2023-03-26T08:30:24.440Z,100.00
2023-03-26T08:33:21.399Z,100.00
2023-03-26T08:35:48.925Z,100.00
2023-03-26T08:38:18.457Z,100.00
2023-03-26T08:41:14.642Z,100.00
2023-03-26T08:43:56.510Z,100.00
2023-03-26T08:46:32.357Z,100.00
2023-03-26T08:49:29.922Z,100.00
2023-03-26T08:52:18.224Z,100.00
2023-03-26T08:55:06.638Z,100.00
2023-03-26T08:57:53.539Z,100.00
2023-03-26T09:00:31.052Z,100.00
2023-03-26T09:03:35.762Z,100.00
2023-03-26T09:06:17.452Z,100.00
2023-03-26T09:09:33.113Z,100.00
2023-03-26T09:12:25.471Z,100.00
2023-03-26T09:15:20.324Z,100.00
2023-03-26T09:18:05.747Z,100.00
2023-03-26T09:21:01.902Z,100.00
2023-03-26T09:23:48.432Z,100.00
2023-03-26T09:26:25.986Z,100.00
2023-03-26T09:29:22.538Z,100.00
2023-03-26T09:32:26.540Z,100.00
2023-03-26T09:35:13.780Z,100.00
2023-03-26T09:37:58.612Z,100.00
2023-03-26T09:40:44.860Z,100.00
2023-03-26T09:43:42.902Z,100.00
2023-03-26T09:46:28.243Z,100.00
2023-03-26T09:49:25.260Z,100.00
2023-03-26T09:52:21.012Z,100.00
2023-03-26T09:54:53.513Z,100.00
2023-03-26T09:57:37.606Z,100.00
2023-03-26T10:00:43.265Z,100.00
2023-03-26T10:03:32.518Z,100.00
2023-03-26T10:06:37.081Z,100.00
2023-03-26T10:09:18.236Z,100.00
2023-03-26T10:11:47.729Z,100.00
2023-03-26T10:14:32.692Z,94.59
2023-03-26T10:17:28.342Z,95.88
2023-03-26T10:20:09.350Z,90.47
2023-03-26T10:22:57.769Z,92.33
2023-03-26T10:25:50.718Z,82.74
2023-03-26T10:28:55.691Z,82.20
2023-03-26T10:31:51.382Z,81.07
2023-03-26T10:34:55.658Z,81.89
2023-03-26T10:37:37.779Z,79.81
2023-03-26T10:40:20.262Z,82.88
2023-03-26T10:43:02.006Z,81.59
2023-03-26T10:45:35.760Z,82.44
2023-03-26T10:48:30.220Z,70.99
2023-03-26T10:51:05.689Z,78.96
2023-03-26T10:53:50.563Z,77.16
2023-03-26T10:56:28.549Z,70.21
2023-03-26T10:58:56.992Z,69.58
2023-03-26T11:01:43.745Z,71.88
2023-03-26T11:04:26.979Z,72.66
2023-03-26T11:06:53.439Z,68.34
2023-03-26T11:09:31.065Z,66.25
2023-03-26T11:12:27.108Z,69.39
2023-03-26T11:15:06.436Z,64.45
2023-03-26T11:17:50.619Z,63.25
2023-03-26T11:20:40.252Z,64.37
2023-03-26T11:23:21.879Z,64.22
2023-03-26T11:25:51.290Z,64.83
2023-03-26T11:28:31.870Z,63.30
2023-03-26T11:31:08.507Z,65.35
2023-03-26T11:33:45.537Z,66.57
2023-03-26T11:36:17.725Z,69.40
2023-03-26T11:38:47.425Z,81.42
2023-03-26T11:41:25.757Z,83.09
2023-03-26T11:44:05.287Z,82.37
2023-03-26T11:46:38.779Z,85.92
2023-03-26T11:49:11.176Z,94.54
2023-03-26T11:51:39.973Z,100.00
2023-03-26T11:54:11.092Z,100.00
2023-03-26T11:57:04.458Z,98.92
2023-03-26T11:59:56.576Z,99.97
2023-03-26T12:02:35.562Z,96.68
2023-03-26T12:05:33.423Z,100.00
2023-03-26T12:08:02.709Z,99.11
2023-03-26T12:10:32.539Z,96.05
2023-03-26T12:13:02.597Z,94.12
2023-03-26T12:15:31.938Z,94.63
2023-03-26T12:18:17.412Z,89.75
2023-03-26T12:20:45.008Z,91.37
2023-03-26T12:23:36.177Z,89.95
2023-03-26T12:26:14.275Z,87.79
2023-03-26T12:28:48.824Z,85.71
2023-03-26T12:31:19.051Z,84.43
2023-03-26T12:34:07.750Z,82.50
2023-03-26T12:36:35.721Z,83.55
2023-03-26T12:40:07.089Z,81.60
2023-03-26T12:44:48.503Z,77.89
2023-03-26T12:45:14.432Z,75.59
2023-03-26T12:47:57.523Z,76.45
2023-03-26T12:51:12.839Z,76.29
2023-03-26T12:53:59.194Z,75.18
2023-03-26T12:56:38.472Z,74.44
2023-03-26T12:59:23.436Z,75.92
2023-03-26T13:02:29.207Z,74.97
2023-03-26T13:05:06.537Z,75.91
2023-03-26T13:07:58.512Z,76.90
2023-03-26T13:10:53.529Z,75.15
2023-03-26T13:13:32.962Z,71.69
2023-03-26T13:16:04.368Z,73.61
2023-03-26T13:18:37.180Z,74.52
2023-03-26T13:21:12.509Z,75.47
2023-03-26T13:24:00.671Z,76.01
2023-03-26T13:26:55.170Z,73.79
2023-03-26T13:29:31.390Z,74.28
2023-03-26T13:32:23.066Z,75.29
2023-03-26T13:35:18.151Z,73.74
2023-03-26T13:38:05.545Z,73.17
2023-03-26T13:40:37.710Z,71.73
2023-03-26T13:43:32.521Z,71.13
2023-03-26T13:46:13.572Z,69.87
2023-03-26T13:48:52.915Z,72.26
2023-03-26T13:51:56.002Z,71.72
2023-03-26T13:54:31.306Z,69.28
2023-03-26T13:57:07.635Z,72.71
2023-03-26T13:59:54.478Z,70.99
2023-03-26T14:02:33.687Z,71.16
2023-03-26T14:05:05.445Z,69.22
2023-03-26T14:07:44.640Z,70.44
2023-03-26T14:10:22.173Z,66.76
2023-03-26T14:13:19.044Z,67.07
2023-03-26T14:15:58.348Z,67.42
2023-03-26T14:18:35.841Z,64.20
2023-03-26T14:21:21.658Z,64.90
2023-03-26T14:24:26.651Z,63.28
2023-03-26T14:27:08.431Z,64.04
2023-03-26T14:29:41.537Z,66.58
2023-03-26T14:32:36.861Z,67.46
2023-03-26T14:35:46.975Z,69.71
2023-03-26T14:38:38.263Z,71.38
2023-03-26T14:41:24.782Z,75.09
2023-03-26T14:44:09.781Z,75.77
2023-03-26T14:46:50.939Z,78.39
2023-03-26T14:49:17.423Z,82.88
2023-03-26T14:52:09.597Z,95.05
2023-03-26T14:54:42.909Z,100.00
2023-03-26T14:57:28.948Z,100.00
2023-03-26T15:00:20.821Z,100.00
2023-03-26T15:03:07.421Z,100.00
2023-03-26T15:05:42.841Z,100.00
2023-03-26T15:08:35.175Z,100.00
2023-03-26T15:11:02.137Z,100.00
2023-03-26T15:13:48.457Z,100.00
2023-03-26T15:16:45.394Z,100.00
2023-03-26T15:19:30.832Z,100.00
2023-03-26T15:22:20.141Z,100.00
2023-03-26T15:25:21.999Z,100.00
2023-03-26T15:28:25.544Z,100.00
2023-03-26T15:31:31.694Z,100.00
2023-03-26T15:34:23.958Z,100.00
2023-03-26T15:37:11.865Z,100.00
2023-03-26T15:40:08.260Z,100.00
2023-03-26T15:42:53.621Z,100.00
2023-03-26T15:45:37.034Z,100.00
2023-03-26T15:48:12.595Z,100.00
2023-03-26T15:50:48.121Z,100.00
2023-03-26T15:53:29.708Z,100.00
2023-03-26T15:56:34.119Z,100.00
2023-03-26T15:59:06.263Z,100.00
2023-03-26T16:02:04.444Z,100.00
2023-03-26T16:04:52.341Z,100.00
2023-03-26T16:07:39.072Z,100.00
2023-03-26T16:10:28.156Z,100.00
2023-03-26T16:13:16.510Z,100.00
2023-03-26T16:15:51.516Z,100.00
2023-03-26T16:18:25.313Z,100.00
2023-03-26T16:21:04.329Z,100.00
2023-03-26T16:23:53.671Z,100.00
2023-03-26T16:26:35.551Z,100.00
2023-03-26T16:29:04.659Z,100.00
2023-03-26T16:31:38.687Z,100.00
2023-03-26T16:34:07.791Z,100.00
2023-03-26T16:36:44.171Z,100.00
2023-03-26T16:39:24.381Z,100.00
2023-03-26T16:42:06.467Z,100.00
2023-03-26T16:45:00.915Z,100.00
2023-03-26T16:47:45.934Z,100.00
2023-03-26T16:50:12.461Z,100.00
2023-03-26T16:52:56.893Z,100.00
2023-03-26T16:55:42.738Z,100.00
2023-03-26T16:58:37.113Z,100.00
2023-03-26T17:01:08.470Z,99.92
2023-03-26T17:04:07.069Z,97.90
2023-03-26T17:06:56.454Z,99.89
2023-03-26T17:09:34.291Z,98.32
2023-03-26T17:12:12.463Z,98.00
2023-03-26T17:15:06.392Z,98.28
2023-03-26T17:17:54.861Z,99.88
2023-03-26T17:20:33.394Z,100.00
2023-03-26T17:23:13.884Z,100.00
2023-03-26T17:25:54.339Z,99.68
2023-03-26T17:28:47.005Z,98.45
2023-03-26T17:31:41.197Z,98.59
2023-03-26T17:34:39.101Z,98.38
2023-03-26T17:37:10.464Z,100.00
2023-03-26T17:39:39.874Z,100.00
2023-03-26T17:42:15.700Z,100.00
2023-03-26T17:44:44.130Z,99.69
2023-03-26T17:47:20.749Z,99.34
2023-03-26T17:49:52.848Z,99.64
2023-03-26T17:52:48.088Z,98.87
2023-03-26T17:55:19.651Z,98.61
2023-03-26T17:57:51.522Z,98.91
2023-03-26T18:00:22.718Z,98.78
2023-03-26T18:02:57.200Z,100.00
2023-03-26T18:05:28.178Z,100.00
2023-03-26T18:08:28.358Z,100.00
2023-03-26T18:11:17.586Z,100.00
2023-03-26T18:14:02.511Z,100.00
2023-03-26T18:16:59.796Z,100.00
2023-03-26T18:19:26.831Z,100.00
2023-03-26T18:21:56.783Z,100.00
2023-03-26T18:24:32.836Z,98.93
2023-03-26T18:27:06.102Z,98.46
2023-03-26T18:29:35.315Z,97.84
2023-03-26T18:32:03.546Z,97.74
2023-03-26T18:34:32.801Z,97.48
2023-03-26T18:37:14.611Z,97.67
2023-03-26T18:39:42.929Z,99.18
2023-03-26T18:42:23.459Z,98.71
2023-03-26T18:44:52.941Z,98.40
2023-03-26T18:47:20.460Z,98.69
2023-03-26T18:49:49.597Z,98.72
2023-03-26T18:52:19.276Z,99.17
2023-03-26T18:54:52.778Z,100.00
2023-03-26T18:57:27.132Z,99.71
2023-03-26T18:59:56.604Z,100.00
2023-03-26T19:02:25.254Z,100.00
2023-03-26T19:04:54.318Z,100.00
2023-03-26T19:07:25.166Z,100.00
2023-03-26T19:09:56.184Z,100.00
2023-03-26T19:12:31.011Z,100.00
2023-03-26T19:15:02.277Z,100.00
2023-03-26T19:17:31.543Z,100.00
2023-03-26T19:19:58.340Z,100.00
2023-03-26T19:22:25.286Z,100.00
2023-03-26T19:24:56.113Z,100.00
2023-03-26T19:27:22.794Z,100.00
2023-03-26T19:29:49.238Z,100.00
2023-03-26T19:32:20.407Z,100.00
2023-03-26T19:34:48.104Z,100.00
2023-03-26T19:37:22.738Z,100.00
2023-03-26T19:39:51.267Z,100.00
2023-03-26T19:42:23.742Z,100.00
2023-03-26T19:44:51.608Z,100.00
2023-03-26T19:47:19.789Z,100.00
2023-03-26T19:49:49.604Z,100.00
2023-03-26T19:52:20.725Z,100.00
2023-03-26T19:55:00.511Z,100.00
2023-03-26T19:57:31.977Z,100.00
2023-03-26T19:59:59.148Z,100.00
2023-03-26T20:02:26.361Z,100.00
2023-03-26T20:04:52.876Z,100.00
2023-03-26T20:07:22.068Z,100.00
2023-03-26T20:10:02.945Z,100.00
2023-03-26T20:12:29.560Z,100.00
2023-03-26T20:14:56.315Z,100.00
2023-03-26T20:17:22.722Z,100.00
2023-03-26T20:19:49.140Z,100.00
2023-03-26T20:22:16.893Z,100.00
2023-03-26T20:24:44.842Z,100.00
2023-03-26T20:27:14.425Z,100.00
2023-03-26T20:29:41.074Z,100.00
2023-03-26T20:32:17.461Z,100.00
2023-03-26T20:34:44.530Z,100.00
2023-03-26T20:37:10.898Z,100.00
2023-03-26T20:39:37.816Z,100.00
2023-03-26T20:42:04.246Z,100.00
2023-03-26T20:44:30.977Z,100.00
2023-03-26T20:46:58.929Z,100.00
2023-03-26T20:49:25.661Z,100.00
2023-03-26T20:51:52.699Z,100.00
2023-03-26T20:54:24.115Z,100.00
2023-03-26T20:56:51.139Z,100.00
2023-03-26T20:59:22.273Z,100.00
2023-03-26T21:01:49.811Z,100.00
2023-03-26T21:04:17.110Z,99.92
2023-03-26T21:06:43.915Z,99.40
2023-03-26T21:09:17.763Z,100.00
2023-03-26T21:12:05.742Z,100.00
2023-03-26T21:14:44.016Z,100.00
2023-03-26T21:17:22.129Z,100.00
2023-03-26T21:19:49.244Z,100.00
2023-03-26T21:22:15.655Z,100.00
2023-03-26T21:24:48.450Z,100.00
2023-03-26T21:27:17.972Z,100.00
2023-03-26T21:29:44.697Z,100.00
2023-03-26T21:32:12.222Z,100.00
2023-03-26T21:34:47.636Z,100.00
2023-03-26T21:37:19.092Z,100.00
2023-03-26T21:39:46.136Z,100.00
2023-03-26T21:42:13.080Z,100.00
2023-03-26T21:44:39.680Z,100.00
2023-03-26T21:47:09.778Z,100.00
2023-03-26T21:49:37.195Z,100.00
2023-03-26T21:52:04.219Z,100.00
2023-03-26T21:54:32.007Z,100.00
2023-03-26T21:57:04.350Z,100.00
2023-03-26T21:59:36.397Z,100.00
2023-03-26T22:02:07.633Z,100.00
2023-03-26T22:04:51.165Z,100.00
2023-03-26T22:07:18.905Z,100.00
2023-03-26T22:09:45.481Z,100.00
2023-03-26T22:12:12.429Z,100.00
2023-03-26T22:14:38.902Z,100.00
2023-03-26T22:17:05.691Z,100.00
2023-03-26T22:19:32.106Z,100.00
2023-03-26T22:22:00.024Z,100.00
2023-03-26T22:24:27.070Z,100.00
2023-03-26T22:26:53.594Z,100.00
2023-03-26T22:29:19.965Z,100.00
2023-03-26T22:31:46.456Z,100.00
2023-03-26T22:34:13.063Z,100.00
2023-03-26T22:36:40.460Z,100.00
2023-03-26T22:39:07.140Z,100.00
2023-03-26T22:41:33.579Z,100.00
2023-03-26T22:44:09.451Z,100.00
2023-03-26T22:46:47.344Z,100.00
2023-03-26T22:49:13.799Z,100.00
2023-03-26T22:51:40.270Z,100.00
2023-03-26T22:54:06.630Z,100.00
2023-03-26T22:56:33.149Z,100.00
2023-03-26T22:58:59.585Z,100.00
2023-03-26T23:01:26.119Z,100.00
2023-03-26T23:03:52.627Z,100.00
2023-03-26T23:06:19.062Z,100.00
2023-03-26T23:08:45.512Z,100.00
2023-03-26T23:11:13.485Z,100.00
2023-03-26T23:13:40.752Z,100.00
2023-03-26T23:16:07.540Z,100.00
2023-03-26T23:18:34.407Z,100.00
2023-03-26T23:21:00.833Z,100.00
2023-03-26T23:23:28.715Z,100.00
2023-03-26T23:25:56.014Z,100.00
2023-03-26T23:28:23.901Z,100.00
2023-03-26T23:30:52.184Z,100.00
2023-03-26T23:33:20.487Z,100.00
2023-03-26T23:35:47.860Z,100.00
2023-03-26T23:38:14.282Z,100.00
2023-03-26T23:40:43.865Z,100.00
2023-03-26T23:43:10.746Z,100.00
2023-03-26T23:45:37.463Z,100.00
2023-03-26T23:48:04.916Z,100.00
2023-03-26T23:50:31.367Z,100.00
2023-03-26T23:52:58.212Z,100.00
2023-03-26T23:55:28.082Z,100.00
2023-03-26T23:57:54.692Z,100.00
